createdAt,value
2022-10-07T00:01:12.158Z,99.90
2022-10-07T00:03:41.606Z,99.90
2022-10-07T00:06:13.417Z,99.90
2022-10-07T00:08:44.956Z,99.90
2022-10-07T00:11:15.441Z,99.90
2022-10-07T00:13:44.738Z,99.90
2022-10-07T00:16:15.147Z,99.90
2022-10-07T00:18:44.284Z,99.90
2022-10-07T00:21:14.198Z,99.90
2022-10-07T00:23:45.878Z,99.90
2022-10-07T00:26:15.830Z,99.90
2022-10-07T00:28:44.343Z,99.90
2022-10-07T00:31:16.105Z,99.90
2022-10-07T00:33:44.830Z,99.90
2022-10-07T00:36:15.809Z,99.90
2022-10-07T00:38:45.640Z,99.90
2022-10-07T00:41:19.703Z,99.90
2022-10-07T00:43:48.434Z,99.90
2022-10-07T00:46:26.627Z,99.90
2022-10-07T00:48:55.774Z,99.90
2022-10-07T00:51:24.272Z,99.90
2022-10-07T00:53:55.856Z,99.90
2022-10-07T00:56:27.145Z,99.90
2022-10-07T00:58:55.516Z,99.90
2022-10-07T01:01:24.289Z,99.90
2022-10-07T01:03:52.488Z,99.90
2022-10-07T01:06:21.280Z,99.90
2022-10-07T01:08:52.887Z,99.90
2022-10-07T01:11:35.183Z,99.90
2022-10-07T01:14:10.414Z,99.90
2022-10-07T01:16:49.691Z,99.90
2022-10-07T01:19:36.450Z,99.90
2022-10-07T01:22:20.939Z,99.90
2022-10-07T01:25:03.591Z,99.90
2022-10-07T01:27:35.824Z,99.90
2022-10-07T01:30:08.027Z,99.90
2022-10-07T01:32:40.525Z,99.90
2022-10-07T01:35:12.874Z,99.90
2022-10-07T01:37:46.393Z,99.90
2022-10-07T01:40:18.450Z,99.90
2022-10-07T01:42:49.813Z,99.90
2022-10-07T01:45:21.667Z,99.90
2022-10-07T01:47:50.645Z,99.90
2022-10-07T01:50:21.909Z,99.90
2022-10-07T01:53:15.576Z,99.90
2022-10-07T01:55:51.745Z,99.90
2022-10-07T01:58:36.981Z,99.90
2022-10-07T02:01:13.231Z,99.90
2022-10-07T02:03:55.979Z,99.90
2022-10-07T02:06:35.693Z,99.90
2022-10-07T02:09:11.953Z,99.90
2022-10-07T02:11:43.961Z,99.90
2022-10-07T02:14:17.701Z,99.90
2022-10-07T02:16:46.878Z,99.90
2022-10-07T02:19:19.188Z,99.90
2022-10-07T02:21:50.790Z,99.90
2022-10-07T02:24:21.077Z,99.90
2022-10-07T02:26:52.348Z,99.90
2022-10-07T02:29:25.025Z,99.90
2022-10-07T02:31:55.052Z,99.90
2022-10-07T02:34:25.786Z,99.90
2022-10-07T02:36:58.727Z,99.90
2022-10-07T02:39:27.434Z,99.90
2022-10-07T02:42:01.091Z,99.90
2022-10-07T02:44:33.344Z,99.90
2022-10-07T02:47:07.349Z,99.90
2022-10-07T02:49:40.138Z,99.90
2022-10-07T02:52:11.721Z,99.90
2022-10-07T02:54:44.545Z,99.90
2022-10-07T02:57:16.726Z,99.90
2022-10-07T02:59:49.826Z,99.90
2022-10-07T03:02:22.003Z,99.90
2022-10-07T03:04:50.575Z,99.90
2022-10-07T03:07:18.906Z,99.90
2022-10-07T03:09:47.188Z,99.90
2022-10-07T03:12:15.888Z,99.90
2022-10-07T03:14:45.996Z,99.90
2022-10-07T03:17:14.091Z,99.90
2022-10-07T03:19:43.284Z,99.90
2022-10-07T03:22:11.367Z,99.90
2022-10-07T03:24:40.473Z,99.90
2022-10-07T03:27:09.363Z,99.90
2022-10-07T03:29:37.513Z,99.90
2022-10-07T03:32:07.055Z,99.90
2022-10-07T03:34:35.565Z,99.90
2022-10-07T03:37:04.411Z,99.90
2022-10-07T03:39:32.664Z,99.90
2022-10-07T03:42:01.084Z,99.90
2022-10-07T03:44:29.261Z,99.90
2022-10-07T03:46:58.878Z,99.90
2022-10-07T03:49:28.895Z,99.90
2022-10-07T03:51:57.006Z,99.90
2022-10-07T03:54:25.153Z,99.90
2022-10-07T03:56:53.752Z,99.90
2022-10-07T03:59:22.089Z,99.90
2022-10-07T04:01:50.253Z,99.90
2022-10-07T04:04:18.939Z,99.90
2022-10-07T04:06:48.376Z,99.90
2022-10-07T04:09:17.074Z,99.90
2022-10-07T04:11:45.529Z,99.90
2022-10-07T04:14:13.807Z,99.90
2022-10-07T04:16:42.565Z,99.90
2022-10-07T04:19:10.811Z,99.90
2022-10-07T04:21:39.159Z,99.90
2022-10-07T04:24:08.706Z,99.90
2022-10-07T04:26:37.137Z,99.90
2022-10-07T04:29:05.421Z,99.90
2022-10-07T04:31:33.763Z,99.90
2022-10-07T04:34:02.379Z,99.90
2022-10-07T04:36:30.608Z,99.90
2022-10-07T04:38:58.715Z,99.90
2022-10-07T04:41:28.409Z,99.90
2022-10-07T04:43:58.104Z,99.90
2022-10-07T04:46:28.499Z,99.90
2022-10-07T04:48:57.310Z,99.90
2022-10-07T04:51:25.386Z,99.90
2022-10-07T04:53:56.880Z,99.90
2022-10-07T04:56:25.534Z,99.90
2022-10-07T04:58:55.999Z,99.90
2022-10-07T05:01:24.549Z,99.90
2022-10-07T05:03:52.907Z,99.90
2022-10-07T05:06:21.034Z,99.90
2022-10-07T05:08:49.917Z,99.90
2022-10-07T05:11:18.445Z,99.90
2022-10-07T05:13:46.539Z,99.90
2022-10-07T05:16:16.091Z,99.90
2022-10-07T05:18:44.868Z,99.90
2022-10-07T05:21:12.908Z,99.90
2022-10-07T05:23:41.420Z,99.90
2022-10-07T05:26:11.341Z,99.90
2022-10-07T05:28:40.303Z,99.90
2022-10-07T05:31:10.873Z,99.90
2022-10-07T05:33:41.076Z,99.90
2022-10-07T05:36:11.497Z,99.90
2022-10-07T05:38:40.027Z,99.90
2022-10-07T05:41:11.343Z,99.90
2022-10-07T05:43:42.301Z,99.90
2022-10-07T05:46:13.791Z,99.90
2022-10-07T05:48:47.207Z,99.90
2022-10-07T05:51:16.048Z,99.90
2022-10-07T05:53:44.881Z,99.90
2022-10-07T05:56:17.821Z,99.90
2022-10-07T05:58:46.149Z,99.90
2022-10-07T06:01:16.606Z,99.90
2022-10-07T06:03:51.624Z,99.90
2022-10-07T06:06:20.277Z,99.90
2022-10-07T06:08:49.099Z,99.90
2022-10-07T06:11:36.196Z,99.90
2022-10-07T06:14:06.208Z,99.90
2022-10-07T06:16:34.466Z,99.90
2022-10-07T06:19:04.378Z,99.90
2022-10-07T06:21:32.733Z,99.90
2022-10-07T06:24:00.851Z,99.90
2022-10-07T06:26:29.166Z,99.90
2022-10-07T06:28:57.542Z,99.90
2022-10-07T06:31:26.022Z,99.90
2022-10-07T06:33:54.794Z,99.90
2022-10-07T06:36:24.539Z,99.90
2022-10-07T06:38:54.912Z,99.90
2022-10-07T06:41:23.774Z,99.90
2022-10-07T06:43:56.986Z,99.90
2022-10-07T06:46:25.411Z,99.90
2022-10-07T06:48:54.176Z,99.90
2022-10-07T06:51:24.189Z,99.90
2022-10-07T06:53:55.343Z,99.90
2022-10-07T06:56:23.614Z,99.90
2022-10-07T06:58:51.859Z,99.90
2022-10-07T07:01:20.644Z,99.90
2022-10-07T07:03:49.127Z,99.90
2022-10-07T07:06:17.232Z,99.90
2022-10-07T07:08:50.307Z,99.90
2022-10-07T07:11:38.018Z,99.90
2022-10-07T07:14:07.921Z,99.90
2022-10-07T07:16:36.954Z,99.90
2022-10-07T07:19:08.874Z,99.90
2022-10-07T07:21:38.276Z,99.90
2022-10-07T07:24:08.488Z,99.90
2022-10-07T07:26:37.951Z,99.90
2022-10-07T07:29:07.779Z,99.90
2022-10-07T07:31:37.539Z,99.90
2022-10-07T07:34:08.926Z,99.90
2022-10-07T07:36:37.372Z,99.90
2022-10-07T07:39:09.955Z,99.90
2022-10-07T07:41:40.687Z,99.90
2022-10-07T07:44:11.785Z,99.90
2022-10-07T07:46:42.241Z,99.90
2022-10-07T07:49:12.114Z,99.90
2022-10-07T07:51:42.483Z,99.90
2022-10-07T07:54:12.865Z,99.90
2022-10-07T07:56:41.426Z,99.90
2022-10-07T07:59:10.010Z,99.90
2022-10-07T08:01:39.232Z,99.90
2022-10-07T08:04:08.197Z,99.90
2022-10-07T08:06:37.670Z,99.90
2022-10-07T08:09:06.076Z,99.90
2022-10-07T08:11:35.947Z,99.90
2022-10-07T08:14:04.429Z,99.90
2022-10-07T08:16:32.823Z,99.90
2022-10-07T08:19:00.969Z,99.90
2022-10-07T08:21:32.877Z,99.90
2022-10-07T08:24:02.888Z,99.90
2022-10-07T08:26:32.888Z,99.90
2022-10-07T08:29:02.843Z,99.90
2022-10-07T08:31:31.640Z,99.90
2022-10-07T08:34:01.578Z,99.90
2022-10-07T08:36:33.022Z,99.90
2022-10-07T08:39:02.377Z,99.90
2022-10-07T08:41:43.668Z,99.90
2022-10-07T08:44:24.992Z,99.90
2022-10-07T08:46:59.995Z,99.90
2022-10-07T08:49:36.642Z,99.90
2022-10-07T08:52:25.453Z,99.90
2022-10-07T08:54:54.454Z,99.90
2022-10-07T08:57:33.984Z,99.90
2022-10-07T09:00:07.138Z,99.90
2022-10-07T09:02:46.448Z,99.90
2022-10-07T09:05:21.630Z,99.90
2022-10-07T09:07:53.617Z,99.90
2022-10-07T09:10:33.598Z,99.90
2022-10-07T09:13:05.865Z,99.90
2022-10-07T09:15:44.768Z,99.90
2022-10-07T09:18:20.732Z,99.90
2022-10-07T09:20:53.299Z,99.90
2022-10-07T09:23:25.091Z,99.90
2022-10-07T09:25:53.416Z,99.90
2022-10-07T09:28:25.456Z,98.30
2022-10-07T09:30:55.479Z,98.90
2022-10-07T09:33:25.706Z,97.60
2022-10-07T09:35:57.592Z,97.90
2022-10-07T09:38:36.064Z,97.30
2022-10-07T09:41:16.709Z,96.50
2022-10-07T09:43:58.555Z,97.20
2022-10-07T09:46:40.839Z,97.70
2022-10-07T09:49:27.497Z,98.40
2022-10-07T09:52:00.700Z,97.40
2022-10-07T09:54:30.347Z,98.20
2022-10-07T09:57:00.441Z,97.80
2022-10-07T09:59:30.786Z,97.00
2022-10-07T10:02:02.989Z,96.80
2022-10-07T10:04:35.545Z,97.70
2022-10-07T10:07:06.995Z,98.20
2022-10-07T10:09:36.093Z,98.00
2022-10-07T10:12:13.395Z,97.40
2022-10-07T10:14:50.592Z,97.10
2022-10-07T10:17:27.682Z,96.50
2022-10-07T10:19:56.145Z,96.40
2022-10-07T10:22:27.135Z,95.20
2022-10-07T10:25:13.814Z,97.60
2022-10-07T10:27:52.163Z,97.30
2022-10-07T10:30:23.776Z,96.00
2022-10-07T10:33:20.712Z,94.40
2022-10-07T10:35:57.912Z,96.10
2022-10-07T10:38:34.378Z,95.20
2022-10-07T10:41:10.591Z,95.40
2022-10-07T10:43:52.855Z,95.10
2022-10-07T10:46:30.463Z,95.70
2022-10-07T10:49:11.835Z,97.30
2022-10-07T10:51:51.167Z,97.50
2022-10-07T10:54:29.018Z,97.50
2022-10-07T10:57:03.601Z,97.90
2022-10-07T10:59:50.308Z,96.70
2022-10-07T11:02:34.702Z,96.90
2022-10-07T11:05:10.024Z,96.80
2022-10-07T11:07:45.451Z,97.20
2022-10-07T11:10:20.505Z,98.30
2022-10-07T11:12:56.687Z,97.80
2022-10-07T11:15:29.904Z,98.60
2022-10-07T11:18:02.658Z,98.10
2022-10-07T11:20:37.324Z,98.70
2022-10-07T11:23:17.706Z,98.30
2022-10-07T11:25:53.974Z,97.90
2022-10-07T11:28:25.643Z,97.80
2022-10-07T11:30:59.289Z,98.80
2022-10-07T11:33:33.998Z,98.20
2022-10-07T11:36:14.288Z,99.00
2022-10-07T11:38:44.222Z,98.10
2022-10-07T11:41:19.949Z,98.20
2022-10-07T11:43:50.788Z,98.60
2022-10-07T11:46:23.833Z,98.50
2022-10-07T11:49:01.050Z,97.70
2022-10-07T11:51:35.258Z,96.70
2022-10-07T11:54:06.853Z,98.00
2022-10-07T11:56:39.572Z,96.30
2022-10-07T11:59:08.883Z,97.80
2022-10-07T12:01:51.483Z,96.90
2022-10-07T12:04:47.975Z,97.60
2022-10-07T12:07:58.157Z,97.20
2022-10-07T12:10:29.689Z,95.30
2022-10-07T12:13:00.530Z,97.10
2022-10-07T12:15:34.828Z,95.60
2022-10-07T12:18:27.697Z,95.80
2022-10-07T12:21:02.410Z,94.50
2022-10-07T12:23:43.181Z,94.20
2022-10-07T12:26:43.965Z,94.20
2022-10-07T12:29:38.012Z,94.20
2022-10-07T12:32:26.219Z,95.40
2022-10-07T12:34:55.712Z,94.20
2022-10-07T12:37:50.249Z,94.00
2022-10-07T12:40:25.917Z,94.80
2022-10-07T12:42:59.829Z,94.10
2022-10-07T12:45:31.085Z,93.40
2022-10-07T12:48:02.082Z,93.40
2022-10-07T12:50:31.858Z,94.80
2022-10-07T12:53:04.135Z,94.50
2022-10-07T12:55:38.164Z,94.60
2022-10-07T12:58:33.498Z,95.00
2022-10-07T13:01:15.982Z,95.00
2022-10-07T13:04:29.187Z,95.60
2022-10-07T13:07:31.075Z,95.30
2022-10-07T13:10:26.050Z,94.40
2022-10-07T13:13:00.167Z,94.80
2022-10-07T13:15:35.396Z,94.60
2022-10-07T13:18:13.357Z,94.00
2022-10-07T13:21:06.894Z,95.00
2022-10-07T13:23:35.659Z,94.80
2022-10-07T13:26:04.593Z,96.00
2022-10-07T13:28:39.970Z,95.20
2022-10-07T13:31:17.906Z,95.70
2022-10-07T13:33:46.709Z,95.10
2022-10-07T13:36:17.636Z,94.40
2022-10-07T13:38:47.354Z,95.70
2022-10-07T13:41:24.744Z,96.40
2022-10-07T13:43:57.503Z,95.80
2022-10-07T13:46:28.630Z,95.50
2022-10-07T13:48:58.354Z,94.70
2022-10-07T13:51:31.169Z,96.20
2022-10-07T13:54:01.010Z,97.00
2022-10-07T13:56:33.638Z,97.60
2022-10-07T13:59:06.975Z,96.60
2022-10-07T14:01:40.030Z,96.20
2022-10-07T14:04:20.026Z,96.70
2022-10-07T14:06:56.095Z,96.40
2022-10-07T14:09:34.739Z,95.70
2022-10-07T14:12:06.094Z,96.70
2022-10-07T14:14:39.071Z,96.50
2022-10-07T14:17:18.253Z,96.00
2022-10-07T14:19:53.055Z,94.90
2022-10-07T14:22:29.242Z,96.20
2022-10-07T14:25:00.799Z,96.00
2022-10-07T14:27:54.826Z,95.80
2022-10-07T14:30:29.202Z,96.30
2022-10-07T14:33:30.166Z,96.70
2022-10-07T14:36:14.292Z,97.30
2022-10-07T14:38:43.833Z,97.00
2022-10-07T14:41:12.808Z,96.60
2022-10-07T14:43:44.799Z,96.90
2022-10-07T14:46:18.842Z,97.80
2022-10-07T14:48:48.501Z,97.80
2022-10-07T14:51:18.877Z,98.10
2022-10-07T14:53:51.349Z,98.80
2022-10-07T14:56:25.293Z,98.90
2022-10-07T14:58:54.218Z,99.20
2022-10-07T15:01:23.960Z,99.90
2022-10-07T15:03:52.878Z,99.90
2022-10-07T15:06:22.066Z,99.90
2022-10-07T15:08:51.161Z,99.90
2022-10-07T15:11:24.032Z,99.90
2022-10-07T15:13:52.750Z,99.90
2022-10-07T15:16:25.005Z,99.90
2022-10-07T15:18:54.181Z,99.90
2022-10-07T15:21:23.213Z,99.90
2022-10-07T15:23:53.306Z,99.90
2022-10-07T15:26:24.276Z,99.90
2022-10-07T15:28:55.383Z,99.90
2022-10-07T15:31:27.129Z,99.90
2022-10-07T15:33:57.991Z,99.90
2022-10-07T15:36:28.702Z,99.90
2022-10-07T15:38:59.780Z,99.90
2022-10-07T15:41:34.010Z,99.90
2022-10-07T15:44:04.551Z,99.90
2022-10-07T15:46:34.370Z,99.90
2022-10-07T15:49:03.582Z,99.90
2022-10-07T15:51:31.867Z,99.90
2022-10-07T15:54:00.732Z,99.90
2022-10-07T15:56:28.918Z,99.90
2022-10-07T15:58:58.763Z,99.90
2022-10-07T16:01:28.337Z,99.90
2022-10-07T16:03:58.626Z,99.90
2022-10-07T16:06:31.595Z,99.90
2022-10-07T16:09:00.838Z,99.90
2022-10-07T16:11:31.345Z,99.90
2022-10-07T16:14:02.269Z,99.90
2022-10-07T16:16:32.509Z,99.90
2022-10-07T16:19:02.505Z,99.90
2022-10-07T16:21:32.882Z,99.90
2022-10-07T16:24:03.925Z,99.90
2022-10-07T16:26:33.969Z,99.90
2022-10-07T16:29:20.559Z,99.90
2022-10-07T16:31:52.519Z,99.90
2022-10-07T16:34:26.002Z,99.90
2022-10-07T16:36:54.200Z,99.90
2022-10-07T16:39:22.843Z,99.90
2022-10-07T16:41:52.446Z,99.90
2022-10-07T16:44:21.656Z,99.90
2022-10-07T16:46:50.328Z,99.90
2022-10-07T16:49:19.358Z,99.90
2022-10-07T16:51:49.093Z,99.90
2022-10-07T16:54:19.506Z,99.90
2022-10-07T16:56:49.990Z,99.90
2022-10-07T16:59:23.641Z,99.90
2022-10-07T17:01:54.700Z,99.90
2022-10-07T17:04:23.512Z,99.90
2022-10-07T17:06:53.600Z,99.90
2022-10-07T17:09:24.839Z,99.90
2022-10-07T17:11:53.138Z,99.90
2022-10-07T17:14:22.928Z,99.90
2022-10-07T17:16:54.149Z,99.90
2022-10-07T17:19:23.748Z,99.90
2022-10-07T17:21:54.849Z,99.90
2022-10-07T17:24:24.618Z,99.90
2022-10-07T17:26:53.593Z,99.90
2022-10-07T17:29:24.292Z,99.90
2022-10-07T17:31:52.695Z,99.90
2022-10-07T17:34:22.221Z,99.90
2022-10-07T17:36:52.337Z,99.90
2022-10-07T17:39:20.834Z,99.90
2022-10-07T17:41:49.376Z,99.90
2022-10-07T17:44:17.791Z,99.90
2022-10-07T17:46:49.086Z,99.90
2022-10-07T17:49:17.459Z,99.90
2022-10-07T17:51:45.638Z,99.90
2022-10-07T17:54:15.594Z,99.90
2022-10-07T17:56:44.562Z,99.90
2022-10-07T17:59:12.835Z,99.90
2022-10-07T18:01:41.761Z,99.90
2022-10-07T18:04:14.818Z,99.90
2022-10-07T18:06:44.013Z,99.90
2022-10-07T18:09:18.585Z,99.90
2022-10-07T18:12:05.221Z,99.90
2022-10-07T18:14:53.711Z,99.90
2022-10-07T18:17:24.780Z,99.90
2022-10-07T18:19:53.188Z,99.90
2022-10-07T18:22:21.390Z,99.90
2022-10-07T18:24:52.325Z,99.90
2022-10-07T18:27:26.912Z,99.90
2022-10-07T18:29:56.039Z,99.90
2022-10-07T18:32:25.002Z,99.90
2022-10-07T18:34:53.156Z,99.90
2022-10-07T18:37:23.041Z,99.90
2022-10-07T18:39:52.628Z,99.90
2022-10-07T18:42:21.211Z,99.90
2022-10-07T18:44:50.622Z,99.90
2022-10-07T18:47:18.819Z,99.90
2022-10-07T18:49:47.226Z,99.90
2022-10-07T18:52:15.638Z,99.90
2022-10-07T18:54:43.806Z,99.90
2022-10-07T18:57:13.406Z,99.90
2022-10-07T18:59:41.773Z,99.90
2022-10-07T19:02:12.486Z,99.90
2022-10-07T19:04:40.903Z,99.90
2022-10-07T19:07:09.202Z,99.90
2022-10-07T19:09:37.338Z,99.90
2022-10-07T19:12:26.744Z,99.90
2022-10-07T19:14:55.425Z,99.90
2022-10-07T19:17:24.195Z,99.90
2022-10-07T19:19:52.421Z,99.90
2022-10-07T19:22:20.773Z,99.90
2022-10-07T19:25:06.795Z,99.90
2022-10-07T19:27:35.084Z,99.90
2022-10-07T19:30:05.620Z,99.90
2022-10-07T19:32:34.912Z,99.90
2022-10-07T19:35:03.340Z,99.90
2022-10-07T19:37:31.551Z,99.90
2022-10-07T19:39:59.730Z,99.90
2022-10-07T19:42:28.691Z,99.90
2022-10-07T19:44:56.835Z,99.90
2022-10-07T19:47:26.597Z,99.90
2022-10-07T19:49:55.266Z,99.90
2022-10-07T19:52:23.998Z,99.90
2022-10-07T19:54:52.202Z,99.90
2022-10-07T19:57:21.574Z,99.90
2022-10-07T19:59:49.724Z,99.90
2022-10-07T20:02:20.074Z,99.90
2022-10-07T20:04:50.240Z,99.90
2022-10-07T20:07:19.141Z,99.90
2022-10-07T20:09:47.445Z,99.90
2022-10-07T20:12:16.456Z,99.90
2022-10-07T20:14:44.620Z,99.90
2022-10-07T20:17:13.009Z,99.90
2022-10-07T20:19:41.364Z,99.90
2022-10-07T20:22:20.337Z,99.90
2022-10-07T20:24:48.642Z,99.90
2022-10-07T20:27:17.974Z,99.90
2022-10-07T20:30:02.638Z,99.90
2022-10-07T20:32:34.337Z,99.90
2022-10-07T20:35:10.853Z,99.90
2022-10-07T20:37:40.615Z,99.90
2022-10-07T20:40:27.887Z,99.90
2022-10-07T20:42:57.312Z,99.90
2022-10-07T20:45:25.497Z,99.90
2022-10-07T20:47:56.217Z,99.90
2022-10-07T20:50:24.399Z,99.90
2022-10-07T20:52:54.321Z,99.90
2022-10-07T20:55:22.632Z,99.90
2022-10-07T20:57:51.399Z,99.90
2022-10-07T21:00:20.332Z,99.90
2022-10-07T21:02:48.776Z,99.90
2022-10-07T21:05:17.226Z,99.90
2022-10-07T21:07:45.543Z,99.90
2022-10-07T21:10:15.218Z,99.90
2022-10-07T21:12:44.576Z,99.90
2022-10-07T21:15:13.287Z,99.90
2022-10-07T21:17:44.592Z,99.90
2022-10-07T21:20:12.894Z,99.90
2022-10-07T21:22:41.240Z,99.90
2022-10-07T21:25:12.291Z,99.90
2022-10-07T21:27:42.569Z,99.90
2022-10-07T21:30:11.950Z,99.90
2022-10-07T21:32:40.480Z,99.90
2022-10-07T21:35:09.307Z,99.90
2022-10-07T21:37:37.501Z,99.90
2022-10-07T21:40:06.324Z,99.90
2022-10-07T21:42:34.616Z,99.90
2022-10-07T21:45:04.321Z,99.90
2022-10-07T21:47:32.908Z,99.90
2022-10-07T21:50:01.111Z,99.90
2022-10-07T21:52:29.518Z,99.90
2022-10-07T21:54:57.793Z,99.90
2022-10-07T21:57:25.991Z,99.90
2022-10-07T21:59:54.129Z,99.90
2022-10-07T22:02:23.891Z,99.90
2022-10-07T22:04:52.254Z,99.90
2022-10-07T22:07:38.040Z,99.90
2022-10-07T22:10:07.358Z,99.90
2022-10-07T22:12:35.535Z,99.90
2022-10-07T22:15:03.734Z,99.90
2022-10-07T22:17:34.809Z,99.90
2022-10-07T22:20:03.284Z,99.90
2022-10-07T22:22:32.158Z,99.90
2022-10-07T22:25:00.839Z,99.90
2022-10-07T22:27:28.950Z,99.90
2022-10-07T22:29:57.448Z,99.90
2022-10-07T22:32:25.720Z,99.90
2022-10-07T22:35:12.528Z,99.90
2022-10-07T22:37:40.834Z,99.90
2022-10-07T22:40:10.137Z,99.90
2022-10-07T22:42:38.666Z,99.90
2022-10-07T22:45:07.711Z,99.90
2022-10-07T22:47:37.520Z,99.90
2022-10-07T22:50:08.538Z,99.90
2022-10-07T22:52:36.965Z,99.90
2022-10-07T22:55:07.373Z,99.90
2022-10-07T22:57:37.004Z,99.90
2022-10-07T23:00:06.386Z,99.90
2022-10-07T23:02:34.733Z,99.90
2022-10-07T23:05:03.465Z,99.90
2022-10-07T23:07:33.412Z,99.90
2022-10-07T23:10:01.513Z,99.90
2022-10-07T23:12:30.253Z,99.90
2022-10-07T23:14:58.366Z,99.90
2022-10-07T23:17:26.833Z,99.90
2022-10-07T23:19:55.697Z,99.90
2022-10-07T23:22:23.893Z,99.90
2022-10-07T23:24:53.572Z,99.90
2022-10-07T23:27:22.278Z,99.90
2022-10-07T23:29:50.369Z,99.90
2022-10-07T23:32:19.993Z,99.90
2022-10-07T23:34:48.263Z,99.90
2022-10-07T23:37:16.621Z,99.90
2022-10-07T23:39:44.950Z,99.90
2022-10-07T23:42:14.899Z,99.90
2022-10-07T23:44:44.239Z,99.90
2022-10-07T23:47:12.607Z,99.90
2022-10-07T23:49:40.873Z,99.90
2022-10-07T23:52:09.119Z,99.90
2022-10-07T23:54:37.254Z,99.90
2022-10-07T23:57:05.665Z,99.90
2022-10-07T23:59:35.124Z,99.90
